Time;durP1;ratioP1;P1;durP2;ratioP2;P2;SDS_P1;SDS_P2;PMS_P1;PMS_P2;Temp;Humidity;BMP_temperature;BMP_pressure;BME280_temperature;BME280_humidity;BME280_pressure;Samples;Min_cycle;Max_cycle;Signal;HPM_P1;HPM_P2
2023/02/15 00:02:01;;;;;;;;;;;8.30;69.50;;;6.97;55.18;101867.78;5000792;28;19929;-80
2023/02/15 00:04:45;;;;;;;;;;;8.30;69.60;;;6.94;55.22;101861.97;4988595;28;19949;-80
2023/02/15 00:07:15;;;;;;;;;;;8.30;69.60;;;6.94;55.48;101854.00;5008566;28;20040;-80
2023/02/15 00:09:42;;;;;;;;;;;8.30;69.70;;;6.90;55.51;101855.28;5007237;28;19941;-80
2023/02/15 00:12:10;;;;;;;;;;;8.20;69.50;;;6.88;55.29;101846.63;5000218;28;19932;-80
2023/02/15 00:14:36;;;;;;;;;;;8.20;69.60;;;6.85;55.43;101850.44;4976038;28;19925;-80
2023/02/15 00:17:04;;;;;;;;;;;8.20;69.50;;;6.85;55.32;101844.31;4999817;28;19926;-80
2023/02/15 00:19:32;;;;;;;;;;;8.20;69.50;;;6.84;55.23;101845.31;5008034;28;19933;-80
2023/02/15 00:21:59;;;;;;;;;;;8.10;69.40;;;6.82;55.44;101836.66;5000148;28;20030;-80
2023/02/15 00:24:26;;;;;;;;;;;8.10;69.50;;;6.80;55.55;101843.94;5007239;28;19933;-80
2023/02/15 00:26:53;;;;;;;;;;;8.10;69.60;;;6.81;55.47;101840.28;4999275;28;19926;-80
2023/02/15 00:29:20;;;;;;;;;;;8.10;69.80;;;6.79;55.48;101839.63;5008855;28;19929;-80
2023/02/15 00:31:48;;;;;;;;;;;8.10;69.90;;;6.76;55.55;101837.25;4991549;28;19936;-80
2023/02/15 00:34:17;;;;;;;;;;;8.10;70.00;;;6.77;55.78;101833.63;5007038;28;20507;-80
2023/02/15 00:36:45;;;;;;;;;;;8.10;70.00;;;6.75;55.47;101840.91;4997124;28;20021;-80
2023/02/15 00:39:15;;;;;;;;;;;8.00;69.70;;;6.71;55.55;101835.91;4999818;28;19933;-80
2023/02/15 00:41:42;;;;;;;;;;;8.00;69.70;;;6.67;55.71;101836.34;4972261;28;19929;-80
2023/02/15 00:44:10;;;;;;;;;;;8.00;69.70;;;6.68;55.75;101838.00;4999464;28;19925;-80
2023/02/15 00:46:37;;;;;;;;;;;8.00;69.80;;;6.69;55.61;101837.06;4998740;28;19925;-80
2023/02/15 00:49:05;;;;;;;;;;;8.10;69.70;;;6.65;55.25;101843.63;4993325;28;19929;-80
2023/02/15 00:51:32;;;;;;;;;;;8.00;69.60;;;6.62;55.48;101839.47;5037499;23;19929;-80
2023/02/15 00:54:01;;;;;;;;;;;7.90;69.60;;;6.61;55.42;101842.28;5045783;28;19948;-80
2023/02/15 00:56:30;;;;;;;;;;;7.90;69.50;;;6.59;55.49;101831.81;5029359;28;20027;-80
2023/02/15 00:58:57;;;;;;;;;;;7.90;69.70;;;6.63;55.55;101835.81;5029328;28;19937;-80
2023/02/15 01:01:25;;;;;;;;;;;7.90;69.40;;;6.61;55.17;101840.44;5036077;28;19929;-80
2023/02/15 01:03:52;;;;;;;;;;;7.90;69.50;;;6.63;55.70;101840.28;5033430;28;19929;-80
2023/02/15 01:06:19;;;;;;;;;;;7.90;69.70;;;6.60;55.54;101838.78;5027895;28;20328;-80
2023/02/15 01:08:48;;;;;;;;;;;7.90;69.70;;;6.62;55.27;101839.47;5034869;28;20273;-80
2023/02/15 01:11:21;;;;;;;;;;;7.90;69.80;;;6.62;55.40;101833.31;5034381;28;19925;-80
2023/02/15 01:13:50;;;;;;;;;;;7.90;69.60;;;6.59;55.44;101834.47;5029104;28;19929;-80
2023/02/15 01:16:17;;;;;;;;;;;7.90;69.50;;;6.56;55.16;101836.59;5027711;28;20397;-80
2023/02/15 01:18:44;;;;;;;;;;;7.90;69.40;;;6.54;55.20;101828.81;5032909;28;20300;-80
2023/02/15 01:21:13;;;;;;;;;;;7.80;69.40;;;6.54;55.20;101826.16;5039429;28;19928;-80
2023/02/15 01:23:41;;;;;;;;;;;7.80;69.30;;;6.51;55.29;101826.44;5042563;28;19929;-80
2023/02/15 01:26:09;;;;;;;;;;;7.80;69.40;;;6.50;55.05;101824.78;5032258;28;19968;-80
2023/02/15 01:28:38;;;;;;;;;;;7.80;69.30;;;6.49;55.32;101825.78;5020572;28;19929;-80
2023/02/15 01:31:06;;;;;;;;;;;7.80;69.40;;;6.49;55.15;101817.81;5032828;28;20008;-80
2023/02/15 01:33:34;;;;;;;;;;;7.80;69.50;;;6.48;54.94;101810.81;5036934;28;19932;-80
2023/02/15 01:36:03;;;;;;;;;;;7.80;69.50;;;6.45;55.11;101811.97;5027783;28;19939;-80
2023/02/15 01:38:30;;;;;;;;;;;7.80;69.50;;;6.47;55.16;101818.94;5028711;28;19925;-79
2023/02/15 01:41:19;;;;;;;;;;;7.80;69.30;;;6.44;55.19;101807.66;5033940;28;19928;-80
2023/02/15 01:43:48;;;;;;;;;;;7.80;69.50;;;6.44;55.20;101814.75;5036300;28;19928;-80
2023/02/15 01:46:18;;;;;;;;;;;7.70;69.50;;;6.41;55.56;101809.78;5030372;28;20092;-80
2023/02/15 01:48:48;;;;;;;;;;;7.70;69.50;;;6.42;55.64;101814.09;5028668;28;19964;-80
2023/02/15 01:51:16;;;;;;;;;;;7.70;69.50;;;6.39;55.17;101806.44;5035567;28;19994;-80
2023/02/15 01:53:47;;;;;;;;;;;7.70;69.40;;;6.36;54.86;101802.28;5044530;28;19931;-80
2023/02/15 01:56:15;;;;;;;;;;;7.70;69.30;;;6.31;55.04;101806.38;5039963;28;19936;-80
2023/02/15 01:58:43;;;;;;;;;;;7.70;69.10;;;6.28;55.09;101799.53;5034510;28;19925;-80
2023/02/15 02:01:11;;;;;;;;;;;7.70;69.30;;;6.29;55.17;101801.19;5034760;28;19929;-80
2023/02/15 02:03:44;;;;;;;;;;;7.60;69.30;;;6.33;55.27;101794.63;5041691;28;19932;-80
2023/02/15 02:06:11;;;;;;;;;;;7.60;69.30;;;6.31;55.54;101795.78;5036630;28;19929;-80
2023/02/15 02:08:41;;;;;;;;;;;7.60;69.50;;;6.30;55.47;101791.47;5036247;28;20340;-80
2023/02/15 02:11:11;;;;;;;;;;;7.60;69.60;;;6.28;55.28;101788.94;5034701;28;20034;-80
2023/02/15 02:13:39;;;;;;;;;;;7.60;69.70;;;6.31;55.49;101798.41;5034882;28;20557;-80
2023/02/15 02:16:12;;;;;;;;;;;7.60;69.80;;;6.28;55.69;101793.41;5036074;28;19925;-80
2023/02/15 02:18:49;;;;;;;;;;;7.60;69.90;;;6.28;55.87;101788.13;5036463;28;19932;-80
2023/02/15 02:21:40;;;;;;;;;;;7.60;70.20;;;6.28;55.86;101780.16;5034407;28;19929;-80
2023/02/15 02:24:51;;;;;;;;;;;7.60;70.30;;;6.28;55.64;101775.69;5034947;28;19936;-80
2023/02/15 02:27:27;;;;;;;;;;;7.60;70.10;;;6.28;55.94;101766.91;5048285;28;19932;-80
2023/02/15 02:30:30;;;;;;;;;;;7.60;70.30;;;6.29;55.37;101763.28;5040221;28;19940;-80
2023/02/15 02:33:17;;;;;;;;;;;7.60;70.00;;;6.21;55.54;101766.69;5034959;28;20275;-80
2023/02/15 02:35:50;;;;;;;;;;;7.50;70.00;;;6.17;55.77;101765.34;5033328;28;19978;-80
2023/02/15 02:38:24;;;;;;;;;;;7.50;69.90;;;6.16;55.22;101758.38;5035828;28;19971;-80
2023/02/15 02:41:01;;;;;;;;;;;7.50;69.90;;;6.16;55.24;101755.72;5031497;28;19929;-80
2023/02/15 02:43:32;;;;;;;;;;;7.50;69.80;;;6.16;55.17;101755.72;5034610;28;19933;-80
2023/02/15 02:46:03;;;;;;;;;;;7.50;69.70;;;6.13;55.38;101750.72;5034115;28;19929;-80
2023/02/15 02:48:34;;;;;;;;;;;7.50;69.70;;;6.12;55.51;101749.06;5034571;28;19932;-80
2023/02/15 02:51:01;;;;;;;;;;;7.40;69.50;;;6.10;55.48;101749.22;5035340;28;19925;-80
2023/02/15 02:53:30;;;;;;;;;;;7.40;69.50;;;6.12;55.54;101739.28;5034000;28;19964;-80
2023/02/15 02:56:00;;;;;;;;;;;7.40;69.40;;;6.09;55.25;101733.47;5033707;28;19937;-80
2023/02/15 02:58:31;;;;;;;;;;;7.40;69.50;;;6.09;55.01;101736.94;5033248;28;19929;-80
2023/02/15 03:01:05;;;;;;;;;;;7.40;69.40;;;6.07;55.04;101730.97;5046000;28;19979;-81
2023/02/15 03:03:37;;;;;;;;;;;7.40;69.60;;;6.05;55.43;101734.75;5045839;28;20486;-80
2023/02/15 03:06:09;;;;;;;;;;;7.40;69.50;;;6.04;55.23;101730.44;5038413;28;19932;-80
2023/02/15 03:08:39;;;;;;;;;;;7.30;69.70;;;6.03;55.45;101734.06;5030489;28;20487;-80
2023/02/15 03:11:07;;;;;;;;;;;7.30;69.70;;;6.02;55.35;101720.00;5039277;28;19929;-80
2023/02/15 03:13:35;;;;;;;;;;;7.30;69.60;;;6.02;55.36;101717.34;5030937;28;19925;-80
2023/02/15 03:18:52;;;;;;;;;;;7.30;69.50;;;5.98;55.19;101718.63;5036141;28;19924;-80
2023/02/15 03:21:22;;;;;;;;;;;7.30;69.50;;;5.98;55.07;101720.44;5042476;28;20020;-80
2023/02/15 03:23:53;;;;;;;;;;;7.30;69.50;;;5.95;55.37;101716.28;5051319;28;19932;-80
2023/02/15 03:26:22;;;;;;;;;;;7.30;69.40;;;5.96;55.43;101725.06;5035420;28;19953;-80
2023/02/15 03:28:51;;;;;;;;;;;7.20;69.50;;;5.94;55.42;101706.66;5032247;28;19931;-80
2023/02/15 03:31:20;;;;;;;;;;;7.20;69.50;;;5.96;55.20;101711.84;5030676;28;19929;-80
2023/02/15 03:33:54;;;;;;;;;;;7.20;69.70;;;5.97;55.26;101718.78;5030225;28;20404;-80
2023/02/15 03:36:23;;;;;;;;;;;7.20;69.70;;;5.93;55.41;101721.72;5031218;28;20301;-80
2023/02/15 03:38:59;;;;;;;;;;;7.20;69.60;;;5.90;55.30;101714.06;5036283;28;20441;-80
2023/02/15 03:41:27;;;;;;;;;;;7.20;69.70;;;5.90;55.64;101711.41;5012396;28;19930;-80
2023/02/15 03:43:58;;;;;;;;;;;7.20;69.70;;;5.91;55.44;101714.91;5026341;28;19933;-80
2023/02/15 03:46:30;;;;;;;;;;;7.20;69.70;;;5.93;55.12;101716.44;5031846;28;19925;-80
2023/02/15 03:49:03;;;;;;;;;;;7.20;69.50;;;5.92;54.90;101719.22;5042952;28;19931;-80
2023/02/15 03:51:44;;;;;;;;;;;7.20;69.30;;;5.87;54.72;101714.34;5043392;28;19929;-80
2023/02/15 03:54:38;;;;;;;;;;;7.20;69.30;;;5.86;54.90;101711.88;5033476;28;19936;-80
2023/02/15 04:02:31;;;;;;;;;;;7.10;69.30;;;5.82;55.09;101716.63;5029402;28;19956;-80
2023/02/15 04:04:59;;;;;;;;;;;7.10;69.30;;;5.81;54.91;101716.78;5030230;28;19929;-80
2023/02/15 04:07:26;;;;;;;;;;;7.10;69.20;;;5.80;55.19;101715.09;5030710;28;19929;-80
2023/02/15 04:12:37;;;;;;;;;;;7.10;69.20;;;5.75;54.81;101715.53;5029304;28;19925;-80
2023/02/15 04:17:58;;;;;;;;;;;7.10;69.30;;;5.71;55.21;101710.69;4998181;28;19930;-80
2023/02/15 04:25:55;;;;;;;;;;;7.00;69.50;;;5.70;55.33;101707.22;5030726;28;19932;-80
2023/02/15 04:28:22;;;;;;;;;;;7.00;69.40;;;5.65;55.21;101702.34;5031490;28;20305;-80
2023/02/15 04:30:49;;;;;;;;;;;7.00;69.40;;;5.65;55.32;101705.00;5029692;28;19929;-80
2023/02/15 04:33:16;;;;;;;;;;;7.00;69.40;;;5.63;55.29;101706.97;5031123;28;19929;-80
2023/02/15 04:35:45;;;;;;;;;;;7.00;69.30;;;5.64;55.26;101705.16;5025583;28;19980;-80
2023/02/15 04:38:12;;;;;;;;;;;7.00;69.30;;;5.61;54.88;101701.00;5031192;28;20405;-80
2023/02/15 04:40:39;;;;;;;;;;;7.00;69.30;;;5.61;55.13;101703.66;5026648;28;20012;-80
2023/02/15 04:43:06;;;;;;;;;;;6.90;69.30;;;5.60;54.95;101696.69;5030390;28;19929;-80
2023/02/15 04:45:33;;;;;;;;;;;6.90;69.30;;;5.61;55.33;101697.50;5050174;28;19932;-80
2023/02/15 04:48:00;;;;;;;;;;;6.90;69.60;;;5.60;54.93;101696.69;5038152;28;20449;-80
2023/02/15 04:50:27;;;;;;;;;;;6.90;69.50;;;5.58;55.25;101695.19;5038910;28;19925;-80
2023/02/15 04:52:55;;;;;;;;;;;6.90;69.50;;;5.57;55.48;101699.63;5017600;28;19936;-80
2023/02/15 04:55:22;;;;;;;;;;;6.90;69.60;;;5.58;55.22;101698.66;5029019;28;20000;-80
2023/02/15 04:57:49;;;;;;;;;;;6.90;69.60;;;5.58;55.03;101692.53;5034111;28;19929;-80
2023/02/15 05:00:17;;;;;;;;;;;6.90;69.60;;;5.56;55.20;101694.47;5031862;28;20389;-81
2023/02/15 05:02:44;;;;;;;;;;;6.90;69.70;;;5.57;55.73;101691.69;5030508;28;20311;-84
2023/02/15 05:05:12;;;;;;;;;;;6.90;69.90;;;5.58;55.38;101695.19;5030678;28;19925;-80
2023/02/15 05:07:39;;;;;;;;;;;6.80;69.60;;;5.56;55.49;101689.19;5038049;28;19971;-80
2023/02/15 05:10:08;;;;;;;;;;;6.90;70.00;;;5.58;55.57;101692.53;5031128;28;20467;-81
2023/02/15 05:12:35;;;;;;;;;;;6.90;69.90;;;5.55;55.19;101690.16;5022308;28;19947;-81
2023/02/15 05:15:02;;;;;;;;;;;6.90;69.90;;;5.52;55.19;101696.59;5029499;28;20015;-81
2023/02/15 05:17:29;;;;;;;;;;;6.90;69.70;;;5.51;55.23;101692.28;5041047;28;19929;-80
2023/02/15 05:19:56;;;;;;;;;;;6.80;69.80;;;5.49;55.08;101683.66;5046859;28;19929;-80
2023/02/15 05:22:23;;;;;;;;;;;6.80;69.70;;;5.51;55.09;101681.69;5030223;28;19976;-80
2023/02/15 05:30:21;;;;;;;;;;;6.80;69.90;;;5.53;55.81;101674.44;5029404;28;19925;-80
2023/02/15 05:32:48;;;;;;;;;;;6.80;70.10;;;5.50;55.16;101673.91;5029095;28;19925;-80
2023/02/15 05:35:16;;;;;;;;;;;6.80;69.90;;;5.46;55.33;101667.25;5038969;28;19936;-80
2023/02/15 05:37:43;;;;;;;;;;;6.70;70.00;;;5.47;55.17;101671.56;5030641;28;20027;-80
2023/02/15 05:40:11;;;;;;;;;;;6.80;69.80;;;5.44;55.02;101672.69;5020031;28;19932;-80
2023/02/15 05:42:40;;;;;;;;;;;6.70;69.70;;;5.40;55.17;101671.31;5027373;28;19932;-80
2023/02/15 05:45:08;;;;;;;;;;;6.70;69.80;;;5.39;55.14;101665.19;5033239;28;19940;-80
2023/02/15 05:47:34;;;;;;;;;;;6.70;69.60;;;5.37;55.14;101667.16;5031962;28;19929;-79
2023/02/15 05:50:01;;;;;;;;;;;6.70;69.90;;;5.39;55.14;101656.44;5031536;28;19948;-79
2023/02/15 05:52:28;;;;;;;;;;;6.80;69.90;;;5.36;55.18;101657.53;5024985;28;19937;-79
2023/02/15 05:54:55;;;;;;;;;;;6.70;69.80;;;5.35;55.74;101661.19;5025785;28;19936;-79
2023/02/15 05:57:22;;;;;;;;;;;6.70;69.90;;;5.36;55.27;101662.84;5028877;28;19936;-79
2023/02/15 05:59:50;;;;;;;;;;;6.60;69.70;;;5.33;55.34;101654.38;5029086;28;19936;-80
2023/02/15 06:02:17;;;;;;;;;;;6.60;69.60;;;5.32;55.22;101661.50;5034758;28;19936;-79
2023/02/15 06:04:44;;;;;;;;;;;6.60;69.80;;;5.33;55.80;101651.75;5028353;28;20286;-81
2023/02/15 06:07:11;;;;;;;;;;;6.60;69.90;;;5.34;55.34;101645.47;5014395;28;19926;-92
2023/02/15 06:09:38;;;;;;;;;;;6.60;69.70;;;5.35;55.25;101660.34;5010447;28;19932;-91
2023/02/15 06:12:06;;;;;;;;;;;6.60;69.70;;;5.33;55.05;101655.22;5022916;28;20019;-83
2023/02/15 06:14:33;;;;;;;;;;;6.60;69.60;;;5.32;55.52;101658.84;5020315;28;19971;-84
2023/02/15 06:17:01;;;;;;;;;;;6.60;69.70;;;5.32;55.26;101665.91;5023478;28;19933;-83
2023/02/15 06:19:28;;;;;;;;;;;6.60;69.70;;;5.32;55.44;101657.97;5032994;28;19956;-83
2023/02/15 06:21:55;;;;;;;;;;;6.60;69.70;;;5.27;55.33;101658.47;5028419;28;19929;-83
2023/02/15 06:24:22;;;;;;;;;;;6.60;69.70;;;5.25;55.11;101660.41;5024822;28;20362;-83
2023/02/15 06:26:49;;;;;;;;;;;6.60;69.70;;;5.23;55.25;101658.91;5028370;28;19926;-83
2023/02/15 06:29:16;;;;;;;;;;;6.50;69.70;;;5.20;55.19;101665.28;5028664;28;19925;-82
2023/02/15 06:31:43;;;;;;;;;;;6.50;69.70;;;5.19;55.25;101668.09;5020338;28;19925;-83
2023/02/15 06:34:11;;;;;;;;;;;6.50;69.70;;;5.20;55.32;101659.19;5022197;28;19929;-84
2023/02/15 06:36:38;;;;;;;;;;;6.50;69.90;;;5.19;55.38;101670.75;5025008;28;19972;-84
2023/02/15 06:39:05;;;;;;;;;;;6.50;69.80;;;5.18;55.14;101672.56;5028364;28;19936;-84
2023/02/15 06:41:32;;;;;;;;;;;6.50;69.80;;;5.16;55.68;101671.84;5034843;28;19929;-84
2023/02/15 06:43:59;;;;;;;;;;;6.50;69.90;;;5.18;55.63;101671.72;5038053;28;20000;-86
2023/02/15 06:46:26;;;;;;;;;;;6.50;70.00;;;5.19;55.32;101665.44;5026018;28;20075;-83
2023/02/15 06:48:53;;;;;;;;;;;6.50;69.90;;;5.14;55.52;101664.06;5032716;28;20416;-84
2023/02/15 06:51:22;;;;;;;;;;;6.40;69.80;;;5.12;55.51;101668.69;5038670;22;19930;-80
2023/02/15 06:53:49;;;;;;;;;;;6.40;69.90;;;5.11;55.71;101669.66;5013052;28;19925;-81
2023/02/15 06:56:16;;;;;;;;;;;6.40;70.00;;;5.11;55.52;101668.81;5018591;28;19929;-80
2023/02/15 06:58:45;;;;;;;;;;;6.40;70.20;;;5.12;55.75;101666.03;5017883;28;19936;-80
2023/02/15 07:01:13;;;;;;;;;;;6.40;70.10;;;5.10;55.84;101662.69;5016404;28;19930;-80
2023/02/15 07:03:40;;;;;;;;;;;6.40;70.00;;;5.09;55.47;101663.69;5022457;28;19925;-80
2023/02/15 07:06:08;;;;;;;;;;;6.40;70.20;;;5.08;55.77;101671.78;5014533;28;20016;-80
2023/02/15 07:08:36;;;;;;;;;;;6.40;70.10;;;5.09;55.63;101671.63;5005147;28;19937;-80
2023/02/15 07:13:44;;;;;;;;;;;6.40;70.10;;;5.08;55.64;101674.41;5013708;28;19935;-81
2023/02/15 07:16:12;;;;;;;;;;;6.40;70.30;;;5.10;56.25;101667.97;5017201;28;20349;-80
2023/02/15 07:18:39;;;;;;;;;;;6.40;70.30;;;5.09;55.85;101673.44;5011098;28;20477;-80
2023/02/15 07:21:07;;;;;;;;;;;6.40;70.40;;;5.07;56.23;101670.91;5012517;28;19929;-80
2023/02/15 07:23:36;;;;;;;;;;;6.40;70.60;;;5.11;56.38;101660.88;5022341;28;19926;-80
2023/02/15 07:26:03;;;;;;;;;;;6.40;70.70;;;5.14;56.00;101669.38;5024956;28;19935;-80
2023/02/15 07:28:30;;;;;;;;;;;6.40;70.70;;;5.13;56.40;101678.28;5027176;28;19933;-80
2023/02/15 07:30:58;;;;;;;;;;;6.40;70.60;;;5.13;56.24;101666.88;5010891;28;19933;-80
2023/02/15 07:33:26;;;;;;;;;;;6.40;70.90;;;5.13;56.25;101658.94;4994872;28;20369;-80
2023/02/15 07:35:56;;;;;;;;;;;6.40;71.10;;;5.15;56.63;101655.16;5023071;28;19930;-80
2023/02/15 07:38:23;;;;;;;;;;;6.40;71.10;;;5.19;56.50;101652.22;5020161;28;19928;-80
2023/02/15 07:40:52;;;;;;;;;;;6.40;71.30;;;5.20;56.36;101645.94;5017907;28;19929;-80
2023/02/15 07:43:19;;;;;;;;;;;6.40;71.30;;;5.21;56.79;101640.50;5009383;28;19940;-79
2023/02/15 07:45:46;;;;;;;;;;;6.40;71.50;;;5.20;57.29;101638.03;5014639;28;19929;-80
2023/02/15 07:48:13;;;;;;;;;;;6.50;71.90;;;5.20;57.21;101632.72;5004760;28;20289;-80
2023/02/15 07:50:39;;;;;;;;;;;6.40;72.10;;;5.24;57.44;101628.81;5017686;28;19929;-80
2023/02/15 07:53:06;;;;;;;;;;;6.50;72.40;;;5.24;57.15;101624.34;5012013;28;19929;-80
2023/02/15 07:55:33;;;;;;;;;;;6.50;72.30;;;5.27;57.45;101620.56;5008035;28;19933;-80
2023/02/15 07:58:02;;;;;;;;;;;6.50;72.70;;;5.26;58.10;101630.31;5008414;28;20390;-80
2023/02/15 08:00:29;;;;;;;;;;;6.50;72.90;;;5.30;57.74;101628.22;5007101;28;19976;-80
2023/02/15 08:05:46;;;;;;;;;;;6.50;73.20;;;5.38;58.13;101613.28;4999476;28;20408;-80
2023/02/15 08:08:30;;;;;;;;;;;6.60;73.40;;;5.41;58.86;101610.31;5012937;28;19932;-81
2023/02/15 08:13:59;;;;;;;;;;;6.60;74.30;;;5.53;58.74;101604.84;5011529;28;19940;-81
2023/02/15 08:16:32;;;;;;;;;;;6.60;74.50;;;5.53;58.70;101599.53;5023626;28;20409;-80
2023/02/15 08:19:03;;;;;;;;;;;6.60;74.50;;;5.55;58.98;101602.84;5010533;28;19940;-80
2023/02/15 08:21:31;;;;;;;;;;;6.70;74.80;;;5.57;59.29;101607.03;5011037;28;19929;-80
2023/02/15 08:24:00;;;;;;;;;;;6.70;75.10;;;5.61;59.36;101603.09;5019707;28;20405;-80
2023/02/15 08:26:29;;;;;;;;;;;6.70;75.40;;;5.66;59.91;101606.13;5011619;28;19951;-81
2023/02/15 08:28:58;;;;;;;;;;;6.70;75.60;;;5.68;60.10;101598.03;5016923;28;19929;-80
2023/02/15 08:31:25;;;;;;;;;;;6.80;75.80;;;5.71;59.99;101600.38;5011718;28;20350;-80
2023/02/15 08:33:59;;;;;;;;;;;6.80;75.80;;;5.75;60.14;101600.88;5011226;28;20448;-80
2023/02/15 08:36:31;;;;;;;;;;;6.80;76.00;;;5.78;60.19;101596.13;5016641;28;20412;-80
2023/02/15 08:39:02;;;;;;;;;;;6.90;76.30;;;5.82;60.71;101594.03;5008893;28;19933;-80
2023/02/15 08:41:46;;;;;;;;;;;6.90;76.60;;;5.82;60.88;101594.03;5009886;28;19936;-80
2023/02/15 08:44:20;;;;;;;;;;;6.90;77.00;;;5.85;61.00;101591.88;5008728;28;19965;-80
2023/02/15 08:46:49;;;;;;;;;;;7.00;77.10;;;5.88;61.44;101591.59;5019939;28;20312;-81
2023/02/15 08:49:23;;;;;;;;;;;7.00;77.30;;;5.92;61.61;101584.22;4993896;28;19929;-80
2023/02/15 08:51:53;;;;;;;;;;;7.00;77.20;;;5.94;61.67;101583.06;5010921;28;19925;-81
2023/02/15 08:54:21;;;;;;;;;;;7.10;77.70;;;5.97;62.08;101581.94;5009758;28;19955;-81
2023/02/15 08:56:49;;;;;;;;;;;7.10;78.00;;;6.01;62.47;101583.28;5019611;28;19925;-89
2023/02/15 08:59:19;;;;;;;;;;;7.10;78.20;;;6.04;61.97;101582.13;5018075;28;20054;-80
2023/02/15 09:01:47;;;;;;;;;;;7.10;78.00;;;6.05;62.66;101576.72;5005673;28;19972;-80
2023/02/15 09:04:15;;;;;;;;;;;7.20;78.50;;;6.10;63.11;101577.06;5009315;28;19931;-80
2023/02/15 09:06:43;;;;;;;;;;;7.20;79.00;;;6.14;63.76;101577.56;5018380;28;20420;-80
2023/02/15 09:09:11;;;;;;;;;;;7.20;79.40;;;6.12;63.21;101579.56;5017835;28;20409;-79
2023/02/15 09:11:40;;;;;;;;;;;7.20;79.10;;;6.15;63.54;101579.25;5012665;28;19926;-79
2023/02/15 09:14:09;;;;;;;;;;;7.30;79.00;;;6.21;63.62;101577.81;5009818;28;20477;-79
2023/02/15 09:16:38;;;;;;;;;;;7.30;79.40;;;6.27;63.37;101574.53;5018048;28;19932;-79
2023/02/15 09:19:06;;;;;;;;;;;7.40;79.30;;;6.29;63.36;101573.38;5010464;28;19940;-79
2023/02/15 09:21:34;;;;;;;;;;;7.40;79.20;;;6.33;63.53;101571.25;5009442;28;19925;-79
2023/02/15 09:24:03;;;;;;;;;;;7.40;79.60;;;6.35;64.27;101569.28;5010253;28;19929;-79
2023/02/15 09:26:32;;;;;;;;;;;7.50;80.70;;;6.39;65.03;101575.91;5021917;28;19936;-80
2023/02/15 09:29:03;;;;;;;;;;;7.50;80.90;;;6.44;64.35;101573.63;5021756;28;19960;-80
2023/02/15 09:31:32;;;;;;;;;;;7.50;80.20;;;6.50;64.16;101573.03;5009650;28;19955;-80
2023/02/15 09:34:01;;;;;;;;;;;7.60;79.90;;;6.49;64.07;101566.06;5010702;28;20271;-81
2023/02/15 09:36:30;;;;;;;;;;;7.60;79.80;;;6.56;63.64;101574.22;5021916;28;19936;-81
2023/02/15 09:38:58;;;;;;;;;;;7.60;79.50;;;6.60;63.37;101573.72;5030367;28;19936;-84
2023/02/15 09:41:54;;;;;;;;;;;7.70;79.40;;;6.64;63.04;101569.78;5002614;28;20028;-83
2023/02/15 09:44:30;;;;;;;;;;;7.70;79.00;;;6.72;62.79;101572.44;4999225;28;20016;-83
2023/02/15 09:47:20;;;;;;;;;;;7.80;78.80;;;6.79;62.72;101566.53;5024326;28;19935;-83
2023/02/15 09:49:54;;;;;;;;;;;7.90;78.70;;;6.85;62.20;101566.72;5029805;28;19929;-83
2023/02/15 09:52:32;;;;;;;;;;;7.90;78.00;;;6.91;61.86;101575.84;5028254;28;20012;-83
2023/02/15 09:55:21;;;;;;;;;;;8.00;78.00;;;6.97;61.88;101575.22;5017616;28;19925;-83
2023/02/15 09:57:55;;;;;;;;;;;8.00;77.50;;;7.06;61.36;101576.06;5012500;28;20624;-83
2023/02/15 10:00:29;;;;;;;;;;;8.10;77.40;;;7.12;60.87;101570.94;5010106;28;19936;-83
2023/02/15 10:03:17;;;;;;;;;;;8.20;76.90;;;7.20;60.82;101578.94;5029267;28;19925;-83
2023/02/15 10:05:58;;;;;;;;;;;8.20;76.60;;;7.26;60.54;101587.22;5017749;28;20028;-83
2023/02/15 10:08:52;;;;;;;;;;;8.30;76.60;;;7.28;59.80;101582.63;5024839;28;19933;-83
2023/02/15 10:11:40;;;;;;;;;;;8.30;75.80;;;7.32;59.29;101581.28;4995427;28;20021;-83
2023/02/15 10:14:23;;;;;;;;;;;8.40;75.20;;;7.36;59.46;101579.97;5004451;28;19929;-83
2023/02/15 10:16:56;;;;;;;;;;;8.40;75.20;;;7.39;59.37;101583.13;5011934;28;19933;-83
2023/02/15 10:19:30;;;;;;;;;;;8.40;74.90;;;7.45;59.45;101579.00;4994862;28;20346;-83
2023/02/15 10:22:10;;;;;;;;;;;8.50;75.10;;;7.53;58.65;101575.53;5013710;28;19925;-83
2023/02/15 10:24:48;;;;;;;;;;;8.60;74.30;;;7.59;58.31;101570.38;5012483;28;19969;-83
2023/02/15 10:27:19;;;;;;;;;;;8.60;73.90;;;7.63;58.32;101579.69;5016276;28;19932;-83
2023/02/15 10:29:56;;;;;;;;;;;8.60;73.90;;;7.65;58.50;101568.91;5009250;28;19951;-83
2023/02/15 10:32:25;;;;;;;;;;;8.70;74.10;;;7.66;57.81;101563.44;4994274;28;20028;-83
2023/02/15 10:34:57;;;;;;;;;;;8.70;73.50;;;7.74;57.65;101565.25;5001293;28;20644;-83
2023/02/15 10:37:45;;;;;;;;;;;8.80;73.30;;;7.85;57.68;101566.75;5011718;28;19929;-83
2023/02/15 10:40:21;;;;;;;;;;;8.90;73.50;;;7.88;57.67;101569.06;5009235;28;20447;-83
2023/02/15 10:43:02;;;;;;;;;;;8.90;73.40;;;7.93;57.97;101567.56;5015922;28;20020;-83
2023/02/15 10:45:32;;;;;;;;;;;9.00;73.40;;;8.00;56.67;101565.94;5010656;28;19936;-83
2023/02/15 10:48:19;;;;;;;;;;;9.10;72.20;;;8.05;56.87;101554.78;5017450;28;20016;-84
2023/02/15 10:50:50;;;;;;;;;;;9.10;72.50;;;8.05;56.61;101557.44;5006554;28;19929;-83
2023/02/15 10:53:36;;;;;;;;;;;9.00;71.90;;;8.08;56.64;101559.75;5013462;28;19925;-83
2023/02/15 10:56:09;;;;;;;;;;;9.10;72.10;;;8.14;56.10;101553.75;5016531;28;20465;-83
2023/02/15 10:58:47;;;;;;;;;;;9.20;71.70;;;8.14;55.98;101551.09;5005871;28;20036;-84
2023/02/15 11:01:19;;;;;;;;;;;9.20;71.10;;;8.21;56.13;101554.75;4994290;28;19929;-83
2023/02/15 11:04:10;;;;;;;;;;;9.20;71.50;;;8.21;55.86;101554.75;4999835;28;20012;-82
2023/02/15 11:06:40;;;;;;;;;;;9.30;71.20;;;8.24;55.62;101542.94;5005228;28;19931;-81
2023/02/15 11:09:15;;;;;;;;;;;9.30;71.10;;;8.27;55.94;101543.44;5000944;28;19929;-81
2023/02/15 11:11:44;;;;;;;;;;;9.30;71.00;;;8.32;55.09;101544.78;5003769;28;20247;-81
2023/02/15 11:14:15;;;;;;;;;;;9.40;70.30;;;8.32;54.92;101550.91;5010772;28;20035;-82
2023/02/15 11:16:46;;;;;;;;;;;9.40;69.90;;;8.37;54.73;101545.13;5014060;28;19936;-82
2023/02/15 11:19:17;;;;;;;;;;;9.40;69.70;;;8.40;54.65;101548.28;5010339;28;19929;-82
2023/02/15 11:21:49;;;;;;;;;;;9.50;69.90;;;8.43;54.77;101541.78;5011611;28;19929;-83
2023/02/15 11:24:20;;;;;;;;;;;9.50;69.80;;;8.47;54.59;101543.09;5007795;28;20275;-82
2023/02/15 11:26:51;;;;;;;;;;;9.60;69.00;;;8.49;54.21;101531.31;5003800;28;19932;-83
2023/02/15 11:29:24;;;;;;;;;;;9.50;69.10;;;8.51;54.18;101534.63;4998811;28;19933;-82
2023/02/15 11:31:54;;;;;;;;;;;9.60;69.00;;;8.55;54.04;101528.97;5010217;28;20032;-84
2023/02/15 11:34:28;;;;;;;;;;;9.60;68.70;;;8.58;53.81;101531.25;5007291;28;20417;-82
2023/02/15 11:36:57;;;;;;;;;;;9.60;68.40;;;8.60;54.20;101522.13;5018272;28;19956;-85
2023/02/15 11:39:28;;;;;;;;;;;9.60;68.50;;;8.58;54.08;101523.28;5008772;28;19930;-83
2023/02/15 11:41:59;;;;;;;;;;;9.60;68.50;;;8.62;54.27;101528.09;5009232;28;19929;-85
2023/02/15 11:44:31;;;;;;;;;;;9.70;68.90;;;8.64;53.87;101534.09;5019897;28;19933;-84
2023/02/15 11:46:58;;;;;;;;;;;9.70;68.50;;;8.68;54.12;101531.88;4991544;28;19964;-84
2023/02/15 11:49:28;;;;;;;;;;;9.70;68.90;;;8.73;53.91;101534.84;5008924;28;19926;-85
2023/02/15 11:51:56;;;;;;;;;;;9.70;68.30;;;8.75;52.74;101528.38;5006030;28;19932;-85
2023/02/15 11:54:27;;;;;;;;;;;9.80;67.50;;;8.76;53.20;101522.06;5009175;28;19929;-85
2023/02/15 11:56:56;;;;;;;;;;;9.80;68.10;;;8.74;53.45;101515.25;5016576;28;19937;-85
2023/02/15 11:59:29;;;;;;;;;;;9.80;67.90;;;8.74;53.71;101520.59;5022061;28;19944;-84
2023/02/15 12:01:55;;;;;;;;;;;9.80;67.90;;;8.73;53.15;101506.44;5019151;28;20493;-85
2023/02/15 12:04:26;;;;;;;;;;;9.80;67.70;;;8.74;54.00;101508.09;4992046;28;20313;-85
2023/02/15 12:06:56;;;;;;;;;;;9.80;68.10;;;8.77;53.94;101507.75;5014571;28;19929;-83
2023/02/15 12:09:31;;;;;;;;;;;9.80;68.60;;;8.83;53.57;101510.72;4993455;28;20296;-84
2023/02/15 12:12:23;;;;;;;;;;;9.90;67.50;;;8.85;53.94;101503.41;5011256;28;19925;-84
2023/02/15 12:14:54;;;;;;;;;;;9.90;68.00;;;8.87;53.28;101506.69;5013034;28;19932;-84